sensor_id;sensor_type;location;lat;lon;timestamp;P1;durP1;ratioP1;P2;durP2;ratioP2
37677;SDS011;23517;50.390;8.616;2022-12-24T00:00:59;16.88;;;2.65;;
37677;SDS011;23517;50.390;8.616;2022-12-24T00:03:26;11.95;;;1.98;;
37677;SDS011;23517;50.390;8.616;2022-12-24T00:05:53;10.00;;;2.00;;
37677;SDS011;23517;50.390;8.616;2022-12-24T00:08:20;10.40;;;1.98;;
37677;SDS011;23517;50.390;8.616;2022-12-24T00:10:50;7.25;;;1.90;;
37677;SDS011;23517;50.390;8.616;2022-12-24T00:13:18;8.40;;;1.73;;
37677;SDS011;23517;50.390;8.616;2022-12-24T00:15:46;11.65;;;1.80;;
37677;SDS011;23517;50.390;8.616;2022-12-24T00:18:13;9.43;;;1.58;;
37677;SDS011;23517;50.390;8.616;2022-12-24T00:20:39;12.52;;;2.25;;
37677;SDS011;23517;50.390;8.616;2022-12-24T00:23:06;6.82;;;1.80;;
37677;SDS011;23517;50.390;8.616;2022-12-24T00:25:34;12.30;;;1.80;;
37677;SDS011;23517;50.390;8.616;2022-12-24T00:28:00;10.38;;;2.13;;
37677;SDS011;23517;50.390;8.616;2022-12-24T00:30:27;9.80;;;2.38;;
37677;SDS011;23517;50.390;8.616;2022-12-24T00:32:55;9.82;;;1.77;;
37677;SDS011;23517;50.390;8.616;2022-12-24T00:35:22;8.70;;;2.03;;
37677;SDS011;23517;50.390;8.616;2022-12-24T00:37:49;8.60;;;1.80;;
37677;SDS011;23517;50.390;8.616;2022-12-24T00:40:16;12.98;;;1.98;;
37677;SDS011;23517;50.390;8.616;2022-12-24T00:42:43;11.20;;;1.85;;
37677;SDS011;23517;50.390;8.616;2022-12-24T00:45:10;14.90;;;2.58;;
37677;SDS011;23517;50.390;8.616;2022-12-24T00:47:38;8.32;;;2.20;;
37677;SDS011;23517;50.390;8.616;2022-12-24T00:50:05;11.88;;;1.98;;
37677;SDS011;23517;50.390;8.616;2022-12-24T00:52:32;18.15;;;2.67;;
37677;SDS011;23517;50.390;8.616;2022-12-24T00:54:59;11.30;;;1.83;;
37677;SDS011;23517;50.390;8.616;2022-12-24T00:57:26;13.90;;;2.30;;
37677;SDS011;23517;50.390;8.616;2022-12-24T00:59:53;10.40;;;2.28;;
37677;SDS011;23517;50.390;8.616;2022-12-24T01:02:19;12.10;;;2.20;;
37677;SDS011;23517;50.390;8.616;2022-12-24T01:04:47;14.23;;;2.50;;
37677;SDS011;23517;50.390;8.616;2022-12-24T01:07:32;19.60;;;2.53;;
37677;SDS011;23517;50.390;8.616;2022-12-24T01:09:59;16.85;;;2.25;;
37677;SDS011;23517;50.390;8.616;2022-12-24T01:12:26;11.00;;;2.33;;
37677;SDS011;23517;50.390;8.616;2022-12-24T01:14:53;12.30;;;2.72;;
37677;SDS011;23517;50.390;8.616;2022-12-24T01:17:20;12.60;;;2.20;;
37677;SDS011;23517;50.390;8.616;2022-12-24T01:19:46;13.32;;;2.42;;
37677;SDS011;23517;50.390;8.616;2022-12-24T01:22:13;11.10;;;2.15;;
37677;SDS011;23517;50.390;8.616;2022-12-24T01:24:40;9.60;;;1.83;;
37677;SDS011;23517;50.390;8.616;2022-12-24T01:27:08;13.40;;;2.28;;
37677;SDS011;23517;50.390;8.616;2022-12-24T01:29:34;12.75;;;2.40;;
37677;SDS011;23517;50.390;8.616;2022-12-24T01:32:01;15.45;;;2.88;;
37677;SDS011;23517;50.390;8.616;2022-12-24T01:34:28;14.32;;;2.30;;
37677;SDS011;23517;50.390;8.616;2022-12-24T01:36:55;12.43;;;2.33;;
37677;SDS011;23517;50.390;8.616;2022-12-24T01:39:22;14.60;;;2.50;;
37677;SDS011;23517;50.390;8.616;2022-12-24T01:41:49;11.30;;;2.05;;
37677;SDS011;23517;50.390;8.616;2022-12-24T01:44:34;8.70;;;2.10;;
37677;SDS011;23517;50.390;8.616;2022-12-24T01:49:42;10.95;;;2.25;;
37677;SDS011;23517;50.390;8.616;2022-12-24T01:52:20;7.50;;;1.80;;
37677;SDS011;23517;50.390;8.616;2022-12-24T01:54:51;12.00;;;2.70;;
37677;SDS011;23517;50.390;8.616;2022-12-24T01:57:24;11.35;;;1.95;;
37677;SDS011;23517;50.390;8.616;2022-12-24T02:00:21;20.27;;;2.75;;
37677;SDS011;23517;50.390;8.616;2022-12-24T02:02:49;12.85;;;2.22;;
37677;SDS011;23517;50.390;8.616;2022-12-24T02:05:23;18.30;;;2.58;;
37677;SDS011;23517;50.390;8.616;2022-12-24T02:07:59;15.10;;;2.83;;
37677;SDS011;23517;50.390;8.616;2022-12-24T02:10:29;14.20;;;2.17;;
37677;SDS011;23517;50.390;8.616;2022-12-24T02:12:56;7.32;;;2.13;;
37677;SDS011;23517;50.390;8.616;2022-12-24T02:15:26;19.75;;;2.60;;
37677;SDS011;23517;50.390;8.616;2022-12-24T02:18:03;10.45;;;1.83;;
37677;SDS011;23517;50.390;8.616;2022-12-24T02:20:50;18.67;;;2.78;;
37677;SDS011;23517;50.390;8.616;2022-12-24T02:23:56;10.43;;;2.72;;
37677;SDS011;23517;50.390;8.616;2022-12-24T02:27:07;13.95;;;2.08;;
37677;SDS011;23517;50.390;8.616;2022-12-24T02:30:04;15.77;;;2.72;;
37677;SDS011;23517;50.390;8.616;2022-12-24T02:32:43;13.63;;;2.47;;
37677;SDS011;23517;50.390;8.616;2022-12-24T02:35:37;12.05;;;2.50;;
37677;SDS011;23517;50.390;8.616;2022-12-24T02:38:41;16.27;;;2.40;;
37677;SDS011;23517;50.390;8.616;2022-12-24T02:41:16;16.30;;;2.35;;
37677;SDS011;23517;50.390;8.616;2022-12-24T02:43:50;14.23;;;2.05;;
37677;SDS011;23517;50.390;8.616;2022-12-24T02:46:21;16.23;;;2.60;;
37677;SDS011;23517;50.390;8.616;2022-12-24T02:48:54;12.15;;;2.00;;
37677;SDS011;23517;50.390;8.616;2022-12-24T02:51:24;12.07;;;2.50;;
37677;SDS011;23517;50.390;8.616;2022-12-24T02:53:50;12.07;;;2.42;;
37677;SDS011;23517;50.390;8.616;2022-12-24T03:02:29;12.77;;;2.35;;
37677;SDS011;23517;50.390;8.616;2022-12-24T03:08:40;11.05;;;2.08;;
37677;SDS011;23517;50.390;8.616;2022-12-24T03:11:13;13.15;;;2.22;;
37677;SDS011;23517;50.390;8.616;2022-12-24T03:13:41;13.30;;;2.60;;
37677;SDS011;23517;50.390;8.616;2022-12-24T03:16:09;15.95;;;2.88;;
37677;SDS011;23517;50.390;8.616;2022-12-24T03:18:41;15.65;;;2.85;;
37677;SDS011;23517;50.390;8.616;2022-12-24T03:21:28;18.10;;;2.67;;
37677;SDS011;23517;50.390;8.616;2022-12-24T03:23:59;15.30;;;2.58;;
37677;SDS011;23517;50.390;8.616;2022-12-24T03:26:27;12.70;;;2.80;;
37677;SDS011;23517;50.390;8.616;2022-12-24T03:28:55;17.48;;;2.63;;
37677;SDS011;23517;50.390;8.616;2022-12-24T03:31:22;18.85;;;2.90;;
37677;SDS011;23517;50.390;8.616;2022-12-24T03:33:49;15.90;;;2.50;;
37677;SDS011;23517;50.390;8.616;2022-12-24T03:36:16;17.05;;;2.38;;
37677;SDS011;23517;50.390;8.616;2022-12-24T03:38:43;11.52;;;2.53;;
37677;SDS011;23517;50.390;8.616;2022-12-24T03:41:10;16.30;;;2.90;;
37677;SDS011;23517;50.390;8.616;2022-12-24T03:43:36;15.30;;;3.20;;
37677;SDS011;23517;50.390;8.616;2022-12-24T03:46:06;18.23;;;2.60;;
37677;SDS011;23517;50.390;8.616;2022-12-24T03:48:34;13.00;;;2.53;;
37677;SDS011;23517;50.390;8.616;2022-12-24T03:51:01;15.93;;;3.47;;
37677;SDS011;23517;50.390;8.616;2022-12-24T03:53:29;15.95;;;2.47;;
37677;SDS011;23517;50.390;8.616;2022-12-24T03:55:56;12.40;;;2.33;;
37677;SDS011;23517;50.390;8.616;2022-12-24T03:58:23;19.77;;;2.83;;
37677;SDS011;23517;50.390;8.616;2022-12-24T04:00:51;18.02;;;2.85;;
37677;SDS011;23517;50.390;8.616;2022-12-24T04:03:19;16.45;;;2.67;;
37677;SDS011;23517;50.390;8.616;2022-12-24T04:05:46;12.35;;;2.28;;
37677;SDS011;23517;50.390;8.616;2022-12-24T04:08:13;11.82;;;2.67;;
37677;SDS011;23517;50.390;8.616;2022-12-24T04:10:39;13.55;;;2.30;;
37677;SDS011;23517;50.390;8.616;2022-12-24T04:13:06;13.57;;;2.70;;
37677;SDS011;23517;50.390;8.616;2022-12-24T04:15:32;12.90;;;2.17;;
37677;SDS011;23517;50.390;8.616;2022-12-24T04:17:59;14.70;;;2.22;;
37677;SDS011;23517;50.390;8.616;2022-12-24T04:20:25;13.35;;;2.03;;
37677;SDS011;23517;50.390;8.616;2022-12-24T04:22:52;16.52;;;2.65;;
37677;SDS011;23517;50.390;8.616;2022-12-24T04:25:19;13.10;;;2.60;;
37677;SDS011;23517;50.390;8.616;2022-12-24T04:27:46;14.15;;;2.55;;
37677;SDS011;23517;50.390;8.616;2022-12-24T04:30:12;19.00;;;2.83;;
37677;SDS011;23517;50.390;8.616;2022-12-24T04:32:39;14.20;;;2.83;;
37677;SDS011;23517;50.390;8.616;2022-12-24T04:35:06;14.45;;;2.40;;
37677;SDS011;23517;50.390;8.616;2022-12-24T04:37:33;14.15;;;2.28;;
37677;SDS011;23517;50.390;8.616;2022-12-24T04:40:00;15.98;;;2.28;;
37677;SDS011;23517;50.390;8.616;2022-12-24T04:42:27;12.95;;;2.50;;
37677;SDS011;23517;50.390;8.616;2022-12-24T04:44:53;10.27;;;1.95;;
37677;SDS011;23517;50.390;8.616;2022-12-24T04:47:20;12.20;;;2.05;;
37677;SDS011;23517;50.390;8.616;2022-12-24T04:49:46;9.80;;;1.95;;
37677;SDS011;23517;50.390;8.616;2022-12-24T04:52:13;14.85;;;2.72;;
37677;SDS011;23517;50.390;8.616;2022-12-24T04:54:40;14.13;;;2.42;;
37677;SDS011;23517;50.390;8.616;2022-12-24T04:57:15;8.13;;;2.10;;
37677;SDS011;23517;50.390;8.616;2022-12-24T04:59:41;14.07;;;2.42;;
37677;SDS011;23517;50.390;8.616;2022-12-24T05:02:08;13.93;;;2.10;;
37677;SDS011;23517;50.390;8.616;2022-12-24T05:04:35;6.72;;;1.70;;
37677;SDS011;23517;50.390;8.616;2022-12-24T05:07:02;13.38;;;2.58;;
37677;SDS011;23517;50.390;8.616;2022-12-24T05:09:29;17.45;;;2.33;;
37677;SDS011;23517;50.390;8.616;2022-12-24T05:11:55;11.05;;;1.80;;
37677;SDS011;23517;50.390;8.616;2022-12-24T05:14:22;10.23;;;2.00;;
37677;SDS011;23517;50.390;8.616;2022-12-24T05:16:48;7.18;;;1.70;;
37677;SDS011;23517;50.390;8.616;2022-12-24T05:19:15;12.65;;;2.55;;
37677;SDS011;23517;50.390;8.616;2022-12-24T05:21:42;9.10;;;2.05;;
37677;SDS011;23517;50.390;8.616;2022-12-24T05:24:09;16.17;;;3.50;;
37677;SDS011;23517;50.390;8.616;2022-12-24T05:26:55;10.95;;;2.72;;
37677;SDS011;23517;50.390;8.616;2022-12-24T05:29:23;9.27;;;1.92;;
37677;SDS011;23517;50.390;8.616;2022-12-24T05:31:51;10.57;;;2.00;;
37677;SDS011;23517;50.390;8.616;2022-12-24T05:34:17;15.63;;;2.13;;
37677;SDS011;23517;50.390;8.616;2022-12-24T05:36:44;15.70;;;2.75;;
37677;SDS011;23517;50.390;8.616;2022-12-24T05:39:14;17.23;;;3.20;;
37677;SDS011;23517;50.390;8.616;2022-12-24T05:41:42;14.82;;;2.47;;
37677;SDS011;23517;50.390;8.616;2022-12-24T05:44:11;13.40;;;2.33;;
37677;SDS011;23517;50.390;8.616;2022-12-24T05:46:38;13.63;;;3.10;;
37677;SDS011;23517;50.390;8.616;2022-12-24T05:49:05;11.45;;;2.80;;
37677;SDS011;23517;50.390;8.616;2022-12-24T05:51:31;13.93;;;2.75;;
37677;SDS011;23517;50.390;8.616;2022-12-24T05:54:02;12.82;;;2.22;;
37677;SDS011;23517;50.390;8.616;2022-12-24T05:56:28;20.35;;;3.20;;
37677;SDS011;23517;50.390;8.616;2022-12-24T05:58:55;12.90;;;2.58;;
37677;SDS011;23517;50.390;8.616;2022-12-24T06:01:23;14.85;;;3.00;;
37677;SDS011;23517;50.390;8.616;2022-12-24T06:03:51;13.52;;;2.80;;
37677;SDS011;23517;50.390;8.616;2022-12-24T06:06:19;12.80;;;2.15;;
37677;SDS011;23517;50.390;8.616;2022-12-24T06:08:49;11.25;;;2.28;;
37677;SDS011;23517;50.390;8.616;2022-12-24T06:11:20;18.77;;;3.08;;
37677;SDS011;23517;50.390;8.616;2022-12-24T06:13:52;14.27;;;2.53;;
37677;SDS011;23517;50.390;8.616;2022-12-24T06:16:20;21.60;;;3.28;;
37677;SDS011;23517;50.390;8.616;2022-12-24T06:18:48;17.95;;;2.58;;
37677;SDS011;23517;50.390;8.616;2022-12-24T06:21:15;12.77;;;2.35;;
37677;SDS011;23517;50.390;8.616;2022-12-24T06:23:49;14.25;;;2.40;;
37677;SDS011;23517;50.390;8.616;2022-12-24T06:26:18;11.32;;;2.33;;
37677;SDS011;23517;50.390;8.616;2022-12-24T06:28:48;11.98;;;2.40;;
37677;SDS011;23517;50.390;8.616;2022-12-24T06:31:17;19.85;;;2.90;;
37677;SDS011;23517;50.390;8.616;2022-12-24T06:33:48;15.77;;;2.85;;
37677;SDS011;23517;50.390;8.616;2022-12-24T06:36:16;14.15;;;2.55;;
37677;SDS011;23517;50.390;8.616;2022-12-24T06:38:47;11.20;;;2.30;;
37677;SDS011;23517;50.390;8.616;2022-12-24T06:41:15;11.77;;;2.30;;
37677;SDS011;23517;50.390;8.616;2022-12-24T06:43:44;13.82;;;2.28;;
37677;SDS011;23517;50.390;8.616;2022-12-24T06:46:12;16.80;;;2.70;;
37677;SDS011;23517;50.390;8.616;2022-12-24T06:48:40;10.30;;;2.33;;
37677;SDS011;23517;50.390;8.616;2022-12-24T06:51:09;12.15;;;2.17;;
37677;SDS011;23517;50.390;8.616;2022-12-24T06:53:38;13.15;;;2.42;;
37677;SDS011;23517;50.390;8.616;2022-12-24T06:56:06;14.82;;;2.40;;
37677;SDS011;23517;50.390;8.616;2022-12-24T06:58:35;16.55;;;3.15;;
37677;SDS011;23517;50.390;8.616;2022-12-24T07:01:03;13.73;;;2.50;;
37677;SDS011;23517;50.390;8.616;2022-12-24T07:03:32;11.98;;;2.33;;
37677;SDS011;23517;50.390;8.616;2022-12-24T07:05:59;13.07;;;2.10;;
37677;SDS011;23517;50.390;8.616;2022-12-24T07:08:26;9.95;;;1.55;;
37677;SDS011;23517;50.390;8.616;2022-12-24T07:10:53;10.88;;;2.00;;
37677;SDS011;23517;50.390;8.616;2022-12-24T07:13:20;10.55;;;2.65;;
37677;SDS011;23517;50.390;8.616;2022-12-24T07:15:55;11.52;;;1.92;;
37677;SDS011;23517;50.390;8.616;2022-12-24T07:18:25;13.73;;;2.58;;
37677;SDS011;23517;50.390;8.616;2022-12-24T07:20:52;19.10;;;3.47;;
37677;SDS011;23517;50.390;8.616;2022-12-24T07:23:19;14.88;;;2.67;;
37677;SDS011;23517;50.390;8.616;2022-12-24T07:25:46;11.93;;;2.55;;
37677;SDS011;23517;50.390;8.616;2022-12-24T07:28:13;17.15;;;3.05;;
37677;SDS011;23517;50.390;8.616;2022-12-24T07:30:39;10.88;;;2.22;;
37677;SDS011;23517;50.390;8.616;2022-12-24T07:33:06;11.23;;;2.85;;
37677;SDS011;23517;50.390;8.616;2022-12-24T07:35:33;7.45;;;1.90;;
37677;SDS011;23517;50.390;8.616;2022-12-24T07:38:00;8.13;;;1.92;;
37677;SDS011;23517;50.390;8.616;2022-12-24T07:40:27;9.18;;;2.10;;
37677;SDS011;23517;50.390;8.616;2022-12-24T07:42:56;14.52;;;3.33;;
37677;SDS011;23517;50.390;8.616;2022-12-24T07:45:23;11.65;;;2.97;;
37677;SDS011;23517;50.390;8.616;2022-12-24T07:47:50;17.88;;;4.00;;
37677;SDS011;23517;50.390;8.616;2022-12-24T07:50:16;16.52;;;3.13;;
37677;SDS011;23517;50.390;8.616;2022-12-24T07:52:43;14.07;;;2.83;;
37677;SDS011;23517;50.390;8.616;2022-12-24T07:55:10;17.73;;;3.28;;
37677;SDS011;23517;50.390;8.616;2022-12-24T07:57:37;13.85;;;3.10;;
37677;SDS011;23517;50.390;8.616;2022-12-24T08:00:04;11.80;;;2.78;;
37677;SDS011;23517;50.390;8.616;2022-12-24T08:02:31;7.88;;;1.77;;
37677;SDS011;23517;50.390;8.616;2022-12-24T08:04:58;12.88;;;2.40;;
37677;SDS011;23517;50.390;8.616;2022-12-24T08:07:25;18.67;;;2.75;;
37677;SDS011;23517;50.390;8.616;2022-12-24T08:09:51;16.55;;;2.88;;
37677;SDS011;23517;50.390;8.616;2022-12-24T08:12:18;10.05;;;2.47;;
37677;SDS011;23517;50.390;8.616;2022-12-24T08:14:45;8.82;;;2.25;;
37677;SDS011;23517;50.390;8.616;2022-12-24T08:17:11;11.95;;;2.70;;
37677;SDS011;23517;50.390;8.616;2022-12-24T08:19:38;17.17;;;3.15;;
37677;SDS011;23517;50.390;8.616;2022-12-24T08:22:05;11.73;;;3.20;;
37677;SDS011;23517;50.390;8.616;2022-12-24T08:24:31;13.32;;;2.95;;
37677;SDS011;23517;50.390;8.616;2022-12-24T08:26:58;14.70;;;2.65;;
37677;SDS011;23517;50.390;8.616;2022-12-24T08:29:25;15.35;;;2.70;;
37677;SDS011;23517;50.390;8.616;2022-12-24T08:31:54;15.60;;;3.22;;
37677;SDS011;23517;50.390;8.616;2022-12-24T08:34:20;11.82;;;3.03;;
37677;SDS011;23517;50.390;8.616;2022-12-24T08:36:47;13.65;;;2.70;;
37677;SDS011;23517;50.390;8.616;2022-12-24T08:39:14;12.80;;;2.80;;
37677;SDS011;23517;50.390;8.616;2022-12-24T08:41:40;14.57;;;3.05;;
37677;SDS011;23517;50.390;8.616;2022-12-24T08:44:07;13.40;;;3.28;;
37677;SDS011;23517;50.390;8.616;2022-12-24T08:46:33;8.10;;;2.35;;
37677;SDS011;23517;50.390;8.616;2022-12-24T08:49:00;11.35;;;2.70;;
37677;SDS011;23517;50.390;8.616;2022-12-24T08:51:27;15.35;;;2.60;;
37677;SDS011;23517;50.390;8.616;2022-12-24T08:53:54;19.38;;;3.47;;
37677;SDS011;23517;50.390;8.616;2022-12-24T08:56:21;18.13;;;3.90;;
37677;SDS011;23517;50.390;8.616;2022-12-24T08:58:47;14.88;;;2.60;;
37677;SDS011;23517;50.390;8.616;2022-12-24T09:01:15;16.55;;;3.55;;
37677;SDS011;23517;50.390;8.616;2022-12-24T09:03:44;17.98;;;2.70;;
37677;SDS011;23517;50.390;8.616;2022-12-24T09:06:11;15.13;;;3.25;;
37677;SDS011;23517;50.390;8.616;2022-12-24T09:08:38;14.43;;;2.97;;
37677;SDS011;23517;50.390;8.616;2022-12-24T09:11:06;12.35;;;2.80;;
37677;SDS011;23517;50.390;8.616;2022-12-24T09:13:39;13.93;;;2.75;;
37677;SDS011;23517;50.390;8.616;2022-12-24T09:16:06;15.40;;;2.92;;
37677;SDS011;23517;50.390;8.616;2022-12-24T09:18:33;16.95;;;3.00;;
37677;SDS011;23517;50.390;8.616;2022-12-24T09:21:00;15.40;;;3.90;;
37677;SDS011;23517;50.390;8.616;2022-12-24T09:23:31;16.80;;;2.85;;
37677;SDS011;23517;50.390;8.616;2022-12-24T09:26:08;13.90;;;2.78;;
37677;SDS011;23517;50.390;8.616;2022-12-24T09:28:48;11.82;;;2.50;;
37677;SDS011;23517;50.390;8.616;2022-12-24T09:31:15;13.88;;;3.15;;
37677;SDS011;23517;50.390;8.616;2022-12-24T09:33:44;12.30;;;2.88;;
37677;SDS011;23517;50.390;8.616;2022-12-24T09:36:13;9.93;;;1.92;;
37677;SDS011;23517;50.390;8.616;2022-12-24T09:38:40;11.35;;;2.70;;
37677;SDS011;23517;50.390;8.616;2022-12-24T09:41:14;13.48;;;3.00;;
37677;SDS011;23517;50.390;8.616;2022-12-24T09:44:30;10.05;;;2.33;;
37677;SDS011;23517;50.390;8.616;2022-12-24T09:47:07;11.80;;;2.45;;
37677;SDS011;23517;50.390;8.616;2022-12-24T09:50:01;10.75;;;2.35;;
37677;SDS011;23517;50.390;8.616;2022-12-24T09:52:35;10.35;;;2.33;;
37677;SDS011;23517;50.390;8.616;2022-12-24T09:55:11;9.27;;;2.17;;
37677;SDS011;23517;50.390;8.616;2022-12-24T09:57:47;11.65;;;2.15;;
37677;SDS011;23517;50.390;8.616;2022-12-24T10:00:27;10.25;;;2.15;;
37677;SDS011;23517;50.390;8.616;2022-12-24T10:02:58;6.20;;;1.70;;
37677;SDS011;23517;50.390;8.616;2022-12-24T10:05:40;12.10;;;2.40;;
37677;SDS011;23517;50.390;8.616;2022-12-24T10:09:10;13.32;;;2.42;;
37677;SDS011;23517;50.390;8.616;2022-12-24T10:11:48;12.30;;;2.60;;
37677;SDS011;23517;50.390;8.616;2022-12-24T10:15:02;10.98;;;1.85;;
37677;SDS011;23517;50.390;8.616;2022-12-24T10:17:55;12.35;;;2.00;;
37677;SDS011;23517;50.390;8.616;2022-12-24T10:20:50;13.25;;;2.00;;
37677;SDS011;23517;50.390;8.616;2022-12-24T10:24:25;13.43;;;2.40;;
37677;SDS011;23517;50.390;8.616;2022-12-24T10:27:20;9.95;;;2.53;;
37677;SDS011;23517;50.390;8.616;2022-12-24T10:29:38;13.75;;;2.10;;
37677;SDS011;23517;50.390;8.616;2022-12-24T10:34:45;12.43;;;2.22;;
37677;SDS011;23517;50.390;8.616;2022-12-24T10:37:27;10.13;;;2.00;;
37677;SDS011;23517;50.390;8.616;2022-12-24T10:39:54;11.63;;;2.38;;
37677;SDS011;23517;50.390;8.616;2022-12-24T10:42:24;15.82;;;2.70;;
37677;SDS011;23517;50.390;8.616;2022-12-24T10:45:16;9.77;;;2.40;;
37677;SDS011;23517;50.390;8.616;2022-12-24T10:47:49;12.57;;;1.98;;
37677;SDS011;23517;50.390;8.616;2022-12-24T10:50:27;15.05;;;2.50;;
37677;SDS011;23517;50.390;8.616;2022-12-24T10:53:09;18.25;;;2.83;;
37677;SDS011;23517;50.390;8.616;2022-12-24T10:56:03;12.30;;;2.28;;
37677;SDS011;23517;50.390;8.616;2022-12-24T10:58:33;12.40;;;2.25;;
37677;SDS011;23517;50.390;8.616;2022-12-24T11:01:00;11.50;;;2.35;;
37677;SDS011;23517;50.390;8.616;2022-12-24T11:03:35;7.43;;;2.35;;
37677;SDS011;23517;50.390;8.616;2022-12-24T11:08:42;10.98;;;2.50;;
37677;SDS011;23517;50.390;8.616;2022-12-24T11:11:11;11.18;;;2.85;;
37677;SDS011;23517;50.390;8.616;2022-12-24T11:16:20;11.18;;;2.55;;
37677;SDS011;23517;50.390;8.616;2022-12-24T11:19:00;17.13;;;2.97;;
37677;SDS011;23517;50.390;8.616;2022-12-24T11:21:37;9.45;;;2.47;;
37677;SDS011;23517;50.390;8.616;2022-12-24T11:24:07;9.98;;;2.28;;
37677;SDS011;23517;50.390;8.616;2022-12-24T11:26:37;9.68;;;2.13;;
37677;SDS011;23517;50.390;8.616;2022-12-24T11:31:33;18.10;;;2.83;;
37677;SDS011;23517;50.390;8.616;2022-12-24T11:37:08;11.63;;;2.25;;
37677;SDS011;23517;50.390;8.616;2022-12-24T11:39:47;9.43;;;2.15;;
37677;SDS011;23517;50.390;8.616;2022-12-24T11:45:25;10.50;;;2.88;;
37677;SDS011;23517;50.390;8.616;2022-12-24T11:47:54;10.43;;;2.30;;
37677;SDS011;23517;50.390;8.616;2022-12-24T11:58:31;13.32;;;2.53;;
37677;SDS011;23517;50.390;8.616;2022-12-24T12:04:14;11.27;;;2.65;;
37677;SDS011;23517;50.390;8.616;2022-12-24T12:06:47;11.25;;;2.20;;
37677;SDS011;23517;50.390;8.616;2022-12-24T12:09:24;14.57;;;2.38;;
37677;SDS011;23517;50.390;8.616;2022-12-24T12:12:22;14.82;;;2.72;;
37677;SDS011;23517;50.390;8.616;2022-12-24T12:15:00;10.57;;;2.30;;
37677;SDS011;23517;50.390;8.616;2022-12-24T12:17:44;11.20;;;2.28;;
37677;SDS011;23517;50.390;8.616;2022-12-24T12:20:27;11.23;;;2.72;;
37677;SDS011;23517;50.390;8.616;2022-12-24T12:25:52;14.77;;;2.65;;
37677;SDS011;23517;50.390;8.616;2022-12-24T12:28:30;11.48;;;2.28;;
37677;SDS011;23517;50.390;8.616;2022-12-24T12:36:50;11.70;;;2.90;;
37677;SDS011;23517;50.390;8.616;2022-12-24T12:39:28;15.70;;;4.30;;
37677;SDS011;23517;50.390;8.616;2022-12-24T12:42:13;9.60;;;2.92;;
37677;SDS011;23517;50.390;8.616;2022-12-24T12:48:10;12.82;;;2.90;;
37677;SDS011;23517;50.390;8.616;2022-12-24T12:57:07;11.88;;;2.35;;
37677;SDS011;23517;50.390;8.616;2022-12-24T12:59:47;14.65;;;2.40;;
37677;SDS011;23517;50.390;8.616;2022-12-24T13:15:01;9.50;;;2.38;;
37677;SDS011;23517;50.390;8.616;2022-12-24T13:20:31;10.68;;;2.20;;
37677;SDS011;23517;50.390;8.616;2022-12-24T13:25:34;16.35;;;2.55;;
37677;SDS011;23517;50.390;8.616;2022-12-24T13:30:50;11.25;;;2.20;;
37677;SDS011;23517;50.390;8.616;2022-12-24T13:38:48;13.77;;;2.13;;
37677;SDS011;23517;50.390;8.616;2022-12-24T13:49:28;16.13;;;2.72;;
37677;SDS011;23517;50.390;8.616;2022-12-24T13:52:06;13.98;;;2.42;;
37677;SDS011;23517;50.390;8.616;2022-12-24T13:54:37;12.10;;;2.28;;
37677;SDS011;23517;50.390;8.616;2022-12-24T13:57:43;9.13;;;2.13;;
37677;SDS011;23517;50.390;8.616;2022-12-24T14:00:26;14.63;;;2.53;;
37677;SDS011;23517;50.390;8.616;2022-12-24T14:08:09;15.10;;;2.35;;
37677;SDS011;23517;50.390;8.616;2022-12-24T14:16:40;11.27;;;2.42;;
37677;SDS011;23517;50.390;8.616;2022-12-24T14:19:15;15.43;;;2.22;;
37677;SDS011;23517;50.390;8.616;2022-12-24T14:21:55;12.88;;;2.38;;
37677;SDS011;23517;50.390;8.616;2022-12-24T14:24:42;11.32;;;2.13;;
37677;SDS011;23517;50.390;8.616;2022-12-24T14:27:45;13.50;;;2.58;;
37677;SDS011;23517;50.390;8.616;2022-12-24T14:32:50;14.95;;;2.70;;
37677;SDS011;23517;50.390;8.616;2022-12-24T14:35:18;15.20;;;3.10;;
37677;SDS011;23517;50.390;8.616;2022-12-24T14:43:59;7.75;;;1.90;;
37677;SDS011;23517;50.390;8.616;2022-12-24T14:47:06;8.23;;;2.60;;
37677;SDS011;23517;50.390;8.616;2022-12-24T14:52:47;14.93;;;4.50;;
37677;SDS011;23517;50.390;8.616;2022-12-24T14:55:45;17.35;;;3.83;;
37677;SDS011;23517;50.390;8.616;2022-12-24T14:58:21;13.25;;;2.92;;
37677;SDS011;23517;50.390;8.616;2022-12-24T15:06:36;11.55;;;2.50;;
37677;SDS011;23517;50.390;8.616;2022-12-24T15:11:46;11.75;;;2.17;;
37677;SDS011;23517;50.390;8.616;2022-12-24T15:14:16;5.45;;;2.05;;
37677;SDS011;23517;50.390;8.616;2022-12-24T15:16:54;10.60;;;2.22;;
37677;SDS011;23517;50.390;8.616;2022-12-24T15:19:30;12.63;;;2.35;;
37677;SDS011;23517;50.390;8.616;2022-12-24T15:22:01;9.50;;;2.15;;
37677;SDS011;23517;50.390;8.616;2022-12-24T15:24:30;10.00;;;2.08;;
37677;SDS011;23517;50.390;8.616;2022-12-24T15:27:01;10.13;;;2.00;;
37677;SDS011;23517;50.390;8.616;2022-12-24T15:29:42;12.07;;;2.55;;
37677;SDS011;23517;50.390;8.616;2022-12-24T15:32:14;7.82;;;2.72;;
37677;SDS011;23517;50.390;8.616;2022-12-24T15:34:48;10.52;;;2.67;;
37677;SDS011;23517;50.390;8.616;2022-12-24T15:37:19;14.10;;;2.40;;
37677;SDS011;23517;50.390;8.616;2022-12-24T15:40:08;9.35;;;2.25;;
37677;SDS011;23517;50.390;8.616;2022-12-24T15:42:46;10.38;;;2.40;;
37677;SDS011;23517;50.390;8.616;2022-12-24T15:45:13;24.40;;;7.80;;
37677;SDS011;23517;50.390;8.616;2022-12-24T15:47:54;22.42;;;8.40;;
37677;SDS011;23517;50.390;8.616;2022-12-24T15:53:06;16.35;;;4.22;;
37677;SDS011;23517;50.390;8.616;2022-12-24T15:55:58;8.63;;;2.95;;
37677;SDS011;23517;50.390;8.616;2022-12-24T15:58:29;10.93;;;2.85;;
37677;SDS011;23517;50.390;8.616;2022-12-24T16:03:35;7.63;;;1.90;;
37677;SDS011;23517;50.390;8.616;2022-12-24T16:06:07;9.13;;;2.40;;
37677;SDS011;23517;50.390;8.616;2022-12-24T16:08:38;9.32;;;2.13;;
37677;SDS011;23517;50.390;8.616;2022-12-24T16:11:19;10.70;;;3.00;;
37677;SDS011;23517;50.390;8.616;2022-12-24T16:13:57;14.45;;;3.20;;
37677;SDS011;23517;50.390;8.616;2022-12-24T16:16:33;10.77;;;3.33;;
37677;SDS011;23517;50.390;8.616;2022-12-24T16:19:05;8.23;;;2.47;;
37677;SDS011;23517;50.390;8.616;2022-12-24T16:21:42;10.07;;;3.03;;
37677;SDS011;23517;50.390;8.616;2022-12-24T16:24:22;13.23;;;5.57;;
37677;SDS011;23517;50.390;8.616;2022-12-24T16:26:51;12.05;;;3.05;;
37677;SDS011;23517;50.390;8.616;2022-12-24T16:29:18;7.70;;;2.15;;
37677;SDS011;23517;50.390;8.616;2022-12-24T16:31:49;13.38;;;2.22;;
37677;SDS011;23517;50.390;8.616;2022-12-24T16:34:30;13.40;;;4.03;;
37677;SDS011;23517;50.390;8.616;2022-12-24T16:36:58;10.15;;;2.78;;
37677;SDS011;23517;50.390;8.616;2022-12-24T16:39:29;9.43;;;2.75;;
37677;SDS011;23517;50.390;8.616;2022-12-24T16:42:00;12.43;;;3.40;;
37677;SDS011;23517;50.390;8.616;2022-12-24T16:44:47;13.82;;;4.65;;
37677;SDS011;23517;50.390;8.616;2022-12-24T16:47:18;16.42;;;4.70;;
37677;SDS011;23517;50.390;8.616;2022-12-24T16:50:04;17.27;;;4.95;;
37677;SDS011;23517;50.390;8.616;2022-12-24T16:52:33;18.90;;;6.50;;
37677;SDS011;23517;50.390;8.616;2022-12-24T16:55:00;15.15;;;5.68;;
37677;SDS011;23517;50.390;8.616;2022-12-24T16:57:27;17.08;;;5.78;;
37677;SDS011;23517;50.390;8.616;2022-12-24T16:59:54;14.38;;;4.35;;
37677;SDS011;23517;50.390;8.616;2022-12-24T17:02:21;17.92;;;4.13;;
37677;SDS011;23517;50.390;8.616;2022-12-24T17:04:50;11.18;;;3.58;;
37677;SDS011;23517;50.390;8.616;2022-12-24T17:07:17;16.02;;;4.25;;
37677;SDS011;23517;50.390;8.616;2022-12-24T17:09:47;17.80;;;3.45;;
37677;SDS011;23517;50.390;8.616;2022-12-24T17:12:14;14.10;;;4.53;;
37677;SDS011;23517;50.390;8.616;2022-12-24T17:14:41;13.90;;;3.85;;